Time;durP1;ratioP1;P1;durP2;ratioP2;P2;SDS_P1;SDS_P2;PMS_P1;PMS_P2;Temp;Humidity;BMP_temperature;BMP_pressure;BME280_temperature;BME280_humidity;BME280_pressure;Samples;Min_cycle;Max_cycle;Signal;HPM_P1;HPM_P2
2022/11/18 00:00:42;;;;;;;2.65;0.98;;;20.80;47.30;;;;;;6230095;28;20791;-47
2022/11/18 00:03:43;;;;;;;;;;;21.10;47.40;;;;;;6232775;28;20068;-47
2022/11/18 00:06:45;;;;;;;;;;;20.90;47.30;;;;;;6192615;28;19928;-47
2022/11/18 00:09:46;;;;;;;2.17;1.02;;;20.60;47.20;;;;;;6228666;28;19925;-48
2022/11/18 00:16:07;;;;;;;1.80;0.70;;;21.10;47.20;;;;;;6226103;28;20067;-48
2022/11/18 00:19:08;;;;;;;1.67;0.57;;;21.00;47.10;;;;;;6210737;28;20045;-47
2022/11/18 00:22:12;;;;;;;0.73;0.40;;;20.60;46.90;;;;;;6228948;28;20036;-47
2022/11/18 00:25:13;;;;;;;1.38;0.43;;;21.40;47.10;;;;;;6221585;28;20078;-46
2022/11/18 00:28:15;;;;;;;;;;;21.00;46.80;;;;;;6227738;28;20136;-49
2022/11/18 00:31:16;;;;;;;;;;;20.80;46.90;;;;;;6222055;28;20730;-47
2022/11/18 00:34:18;;;;;;;0.50;0.25;;;20.50;46.80;;;;;;6231746;28;19924;-48
2022/11/18 00:37:20;;;;;;;0.75;0.30;;;21.10;46.90;;;;;;6227883;28;20109;-45
2022/11/18 00:40:21;;;;;;;0.73;0.40;;;21.10;46.80;;;;;;6232216;28;20059;-48
2022/11/18 00:43:23;;;;;;;;;;;21.10;46.60;;;;;;6223465;28;20147;-47
2022/11/18 00:46:25;;;;;;;0.30;0.20;;;21.10;46.80;;;;;;6227307;28;19999;-48
2022/11/18 00:49:26;;;;;;;;;;;20.60;46.40;;;;;;6231293;28;21013;-46
2022/11/18 00:52:27;;;;;;;0.50;0.30;;;20.60;46.40;;;;;;6227419;28;20867;-44
2022/11/18 00:55:29;;;;;;;0.73;0.20;;;20.80;46.50;;;;;;6229116;28;20942;-47
2022/11/18 00:58:31;;;;;;;;;;;20.40;46.10;;;;;;6222817;28;20054;-49
2022/11/18 01:01:32;;;;;;;0.50;0.20;;;20.70;46.30;;;;;;6228535;28;19920;-48
2022/11/18 01:04:38;;;;;;;0.28;0.28;;;20.90;46.30;;;;;;6231052;28;20114;-48
2022/11/18 01:07:42;;;;;;;0.57;0.30;;;20.70;45.90;;;;;;6213389;28;20056;-47
2022/11/18 01:10:43;;;;;;;;;;;20.80;46.00;;;;;;6224322;28;20060;-50
2022/11/18 01:13:48;;;;;;;0.20;0.10;;;21.00;46.20;;;;;;6230313;28;19928;-47
2022/11/18 01:16:52;;;;;;;0.98;0.55;;;20.80;46.10;;;;;;6228291;28;20079;-48
2022/11/18 01:19:53;;;;;;;0.98;0.40;;;20.80;45.90;;;;;;6233680;28;20075;-48
2022/11/18 01:22:55;;;;;;;;;;;21.00;46.00;;;;;;6230804;28;20126;-49
2022/11/18 01:25:56;;;;;;;0.43;0.30;;;20.60;46.00;;;;;;6230799;28;20056;-48
2022/11/18 01:28:58;;;;;;;0.43;0.30;;;20.60;45.90;;;;;;6234037;28;20056;-47
2022/11/18 01:31:59;;;;;;;0.57;0.30;;;20.70;46.60;;;;;;6231399;28;20927;-47
2022/11/18 01:35:21;;;;;;;0.40;0.20;;;20.50;45.80;;;;;;6218176;28;20133;-47
2022/11/18 01:38:22;;;;;;;;;;;20.80;45.90;;;;;;6234988;28;20194;-46
2022/11/18 01:41:26;;;;;;;0.10;0.10;;;20.50;45.90;;;;;;6230490;28;19991;-45
2022/11/18 01:44:53;;;;;;;0.30;0.20;;;20.90;45.90;;;;;;6216584;28;20059;-50
2022/11/18 01:48:00;;;;;;;0.55;0.35;;;21.00;46.00;;;;;;6231739;28;20045;-48
2022/11/18 01:51:05;;;;;;;0.52;0.38;;;20.60;45.80;;;;;;6212523;28;20044;-47
2022/11/18 01:54:11;;;;;;;1.25;0.40;;;20.60;45.80;;;;;;6200439;28;20040;-45
2022/11/18 01:57:16;;;;;;;0.75;0.43;;;20.90;46.00;;;;;;6219384;28;20647;-45
2022/11/18 02:00:17;;;;;;;0.75;0.50;;;20.80;46.00;;;;;;6232022;28;20892;-47
2022/11/18 02:03:20;;;;;;;;;;;20.90;46.20;;;;;;6235382;28;20033;-46
2022/11/18 02:06:24;;;;;;;0.45;0.28;;;20.50;46.20;;;;;;6228387;28;19971;-49
2022/11/18 02:09:26;;;;;;;0.38;0.30;;;20.60;45.90;;;;;;6231408;28;20151;-47
2022/11/18 02:12:27;;;;;;;;;;;20.70;46.00;;;;;;6233482;28;20072;-48
2022/11/18 02:15:42;;;;;;;0.50;0.20;;;20.90;46.20;;;;;;6233801;28;19950;-48
2022/11/18 02:18:51;;;;;;;0.20;0.20;;;21.00;46.10;;;;;;6236724;28;20201;-48
2022/11/18 02:22:05;;;;;;;0.50;0.32;;;20.80;46.00;;;;;;6236059;28;20182;-47
2022/11/18 02:25:14;;;;;;;1.63;0.40;;;20.70;45.90;;;;;;6239699;28;20033;-50
2022/11/18 02:28:29;;;;;;;0.93;0.38;;;20.50;45.80;;;;;;6221124;28;20147;-47
2022/11/18 02:31:35;;;;;;;0.80;0.60;;;20.40;45.80;;;;;;6240680;28;20151;-50
2022/11/18 02:34:44;;;;;;;0.95;0.50;;;20.60;45.90;;;;;;6235786;28;20611;-46
2022/11/18 02:37:50;;;;;;;1.52;0.50;;;20.80;46.10;;;;;;6230607;28;20378;-45
2022/11/18 02:40:57;;;;;;;0.75;0.35;;;20.80;46.10;;;;;;6233168;28;20159;-45
2022/11/18 02:44:03;;;;;;;0.82;0.50;;;20.90;46.20;;;;;;6211642;28;20143;-48
2022/11/18 02:47:10;;;;;;;0.55;0.32;;;20.70;46.10;;;;;;6234662;28;20542;-46
2022/11/18 02:50:16;;;;;;;1.00;0.43;;;20.50;46.00;;;;;;6217380;28;20464;-45
2022/11/18 02:53:20;;;;;;;0.45;0.30;;;20.80;46.20;;;;;;6191611;28;20159;-45
2022/11/18 02:56:24;;;;;;;0.63;0.30;;;20.70;46.10;;;;;;6201708;28;20547;-47
2022/11/18 02:59:27;;;;;;;1.30;0.40;;;20.60;46.00;;;;;;6229243;28;20072;-46
2022/11/18 03:02:40;;;;;;;0.93;0.32;;;21.00;46.20;;;;;;6211731;28;20233;-47
2022/11/18 03:05:50;;;;;;;1.15;0.40;;;21.00;46.20;;;;;;6214317;28;20064;-46
2022/11/18 03:08:58;;;;;;;0.35;0.20;;;20.80;46.10;;;;;;6235501;28;20711;-47
2022/11/18 03:12:09;;;;;;;0.75;0.40;;;21.00;46.20;;;;;;6213135;28;20075;-45
2022/11/18 03:15:17;;;;;;;1.23;0.43;;;20.60;46.00;;;;;;6199132;28;20158;-48
2022/11/18 03:18:27;;;;;;;1.13;0.57;;;20.60;46.00;;;;;;6229904;28;20161;-48
2022/11/18 03:21:34;;;;;;;0.25;0.20;;;20.80;46.10;;;;;;6215857;28;20121;-45
2022/11/18 03:24:39;;;;;;;0.40;0.20;;;20.80;46.10;;;;;;6216618;28;20903;-45
2022/11/18 03:27:47;;;;;;;0.65;0.40;;;20.70;46.00;;;;;;6217028;28;20648;-45
2022/11/18 03:30:55;;;;;;;0.77;0.40;;;20.70;46.00;;;;;;6239641;28;20197;-50
2022/11/18 03:34:01;;;;;;;0.95;0.40;;;20.90;46.20;;;;;;6234148;28;20044;-49
2022/11/18 03:37:06;;;;;;;0.60;0.30;;;21.00;46.20;;;;;;6211527;28;20045;-44
2022/11/18 03:40:17;;;;;;;0.40;0.10;;;20.70;46.00;;;;;;6236318;28;20563;-47
2022/11/18 03:43:22;;;;;;;0.30;0.20;;;20.60;46.00;;;;;;6235563;28;20468;-47
2022/11/18 03:46:29;;;;;;;0.20;0.20;;;20.80;46.10;;;;;;6235963;28;20094;-48
2022/11/18 03:49:36;;;;;;;0.80;0.30;;;20.90;46.20;;;;;;6236482;28;20036;-46
2022/11/18 03:52:40;;;;;;;0.60;0.30;;;20.90;46.10;;;;;;6232738;28;20579;-46
2022/11/18 03:55:46;;;;;;;0.20;0.20;;;20.60;46.00;;;;;;6231992;28;20526;-48
2022/11/18 03:58:52;;;;;;;0.70;0.35;;;20.70;46.00;;;;;;6234988;28;20211;-46
2022/11/18 04:01:56;;;;;;;0.20;0.20;;;20.60;46.00;;;;;;6231387;28;20190;-45
2022/11/18 04:05:01;;;;;;;0.43;0.30;;;20.70;46.00;;;;;;6233907;28;20828;-45
2022/11/18 04:08:07;;;;;;;0.38;0.20;;;20.60;46.00;;;;;;6231240;28;20133;-45
2022/11/18 04:12:01;;;;;;;0.35;0.20;;;20.90;46.20;;;;;;6234177;28;20282;-49
2022/11/18 04:14:37;;;;;;;0.75;0.20;;;20.30;45.80;;;;;;6218740;28;20308;-47
2022/11/18 04:17:41;;;;;;;0.40;0.20;;;20.60;46.00;;;;;;6214089;28;20036;-48
2022/11/18 04:20:43;;;;;;;0.60;0.30;;;20.80;46.10;;;;;;6239706;28;20076;-48
2022/11/18 04:23:44;;;;;;;0.10;0.00;;;20.90;46.20;;;;;;6244209;28;20932;-50
2022/11/18 04:26:46;;;;;;;0.47;0.20;;;20.70;46.10;;;;;;6240607;28;20992;-46
2022/11/18 04:29:47;;;;;;;;;;;20.90;46.20;;;;;;6240222;28;20163;-49
2022/11/18 04:32:48;;;;;;;0.15;0.10;;;20.80;46.10;;;;;;6238168;28;19971;-45
2022/11/18 04:35:50;;;;;;;0.50;0.20;;;20.70;46.10;;;;;;6241479;28;20733;-47
2022/11/18 04:38:52;;;;;;;0.30;0.20;;;20.70;46.10;;;;;;6243999;28;20071;-48
2022/11/18 04:41:54;;;;;;;;;;;21.10;46.30;;;;;;6228972;28;20341;-49
2022/11/18 04:44:56;;;;;;;0.20;0.10;;;20.80;46.30;;;;;;6233352;28;20752;-49
2022/11/18 04:47:57;;;;;;;0.35;0.20;;;20.60;46.00;;;;;;6214734;28;20036;-47
2022/11/18 04:51:05;;;;;;;0.25;0.20;;;20.60;46.00;;;;;;6235104;28;20044;-45
2022/11/18 04:54:08;;;;;;;0.22;0.13;;;20.40;45.90;;;;;;6237929;28;20252;-46
2022/11/18 04:57:10;;;;;;;0.22;0.20;;;20.60;46.00;;;;;;6234522;28;20041;-49
2022/11/18 05:00:12;;;;;;;0.10;0.10;;;20.40;45.90;;;;;;6215281;28;20218;-49
2022/11/18 05:03:14;;;;;;;0.32;0.20;;;20.50;45.90;;;;;;6235368;28;20586;-47
2022/11/18 05:06:16;;;;;;;0.43;0.28;;;20.50;45.90;;;;;;6224685;28;21157;-46
2022/11/18 05:09:18;;;;;;;0.20;0.10;;;20.80;46.10;;;;;;6226524;28;20906;-46
2022/11/18 05:15:36;;;;;;;0.20;0.20;;;20.70;46.00;;;;;;6222026;28;20081;-48
2022/11/18 05:18:37;;;;;;;0.35;0.20;;;20.80;46.10;;;;;;6223360;28;20883;-45
2022/11/18 05:21:39;;;;;;;0.77;0.20;;;20.70;46.10;;;;;;6222005;28;20067;-46
2022/11/18 05:24:41;;;;;;;0.60;0.20;;;20.80;46.20;;;;;;6217732;28;20083;-45
2022/11/18 05:27:42;;;;;;;;;;;20.70;46.00;;;;;;6226987;28;20351;-47
2022/11/18 05:30:43;;;;;;;0.30;0.20;;;20.60;46.20;;;;;;6225357;28;20162;-46
2022/11/18 05:33:45;;;;;;;0.80;0.40;;;20.70;46.20;;;;;;6225012;28;20146;-46
2022/11/18 05:36:47;;;;;;;0.80;0.20;;;20.80;46.20;;;;;;6219284;28;20036;-50
2022/11/18 05:39:49;;;;;;;0.57;0.20;;;20.70;46.10;;;;;;6236530;28;20625;-47
2022/11/18 05:46:06;;;;;;;0.45;0.20;;;20.10;45.80;;;;;;6225409;28;20467;-46
2022/11/18 05:49:08;;;;;;;1.05;0.30;;;20.30;45.80;;;;;;6222127;28;20115;-46
2022/11/18 05:52:10;;;;;;;;;;;20.70;45.90;;;;;;6220066;28;20248;-47
2022/11/18 05:55:13;;;;;;;;;;;20.40;45.90;;;;;;6226268;28;20167;-46
2022/11/18 05:58:14;;;;;;;0.50;0.43;;;20.60;46.00;;;;;;6222017;28;20626;-46
2022/11/18 06:01:20;;;;;;;0.45;0.30;;;20.70;46.30;;;;;;6218443;28;20045;-45
2022/11/18 06:04:28;;;;;;;0.43;0.38;;;20.20;45.60;;;;;;6202701;28;20080;-45
2022/11/18 06:07:32;;;;;;;0.50;0.30;;;20.60;45.80;;;;;;6234473;28;20086;-49
2022/11/18 06:10:37;;;;;;;0.55;0.30;;;20.70;45.70;;;;;;6231080;28;20784;-46
2022/11/18 06:13:47;;;;;;;0.95;0.32;;;20.30;45.40;;;;;;6223301;28;20105;-49
2022/11/18 06:16:53;;;;;;;0.80;0.30;;;20.60;45.50;;;;;;6229973;28;20677;-44
2022/11/18 06:19:57;;;;;;;0.57;0.30;;;20.70;45.60;;;;;;6227013;28;20084;-46
2022/11/18 06:23:00;;;;;;;0.73;0.40;;;20.40;45.40;;;;;;6233947;28;20213;-47
2022/11/18 06:26:02;;;;;;;0.80;0.35;;;20.50;45.40;;;;;;6225616;28;20056;-46
2022/11/18 06:29:03;;;;;;;;;;;20.30;45.30;;;;;;6224369;28;20044;-50
2022/11/18 06:32:05;;;;;;;0.80;0.30;;;21.20;45.90;;;;;;6226078;28;19925;-48
2022/11/18 06:35:07;;;;;;;0.38;0.30;;;20.30;45.40;;;;;;6222436;28;20044;-47
2022/11/18 06:38:10;;;;;;;0.40;0.30;;;20.30;45.30;;;;;;6223467;28;20825;-47
2022/11/18 06:41:11;;;;;;;0.80;0.47;;;20.60;45.50;;;;;;6228240;28;20048;-45
2022/11/18 06:44:13;;;;;;;;;;;20.50;45.40;;;;;;6219284;28;20436;-47
2022/11/18 06:47:14;;;;;;;0.52;0.30;;;20.10;45.40;;;;;;6210717;28;20219;-44
2022/11/18 06:50:16;;;;;;;0.35;0.20;;;20.60;45.60;;;;;;6215369;28;20052;-46
2022/11/18 06:53:18;;;;;;;0.95;0.40;;;20.60;45.50;;;;;;6210602;28;20044;-47
2022/11/18 06:56:21;;;;;;;0.85;0.40;;;20.60;45.60;;;;;;6218279;28;20055;-46
2022/11/18 06:59:23;;;;;;;0.90;0.40;;;20.60;45.50;;;;;;6224635;28;20041;-45
2022/11/18 07:02:25;;;;;;;0.50;0.40;;;20.10;45.30;;;;;;6200086;28;20232;-48
2022/11/18 07:05:26;;;;;;;0.88;0.43;;;20.40;45.40;;;;;;6206140;28;20641;-45
2022/11/18 07:08:28;;;;;;;;;;;20.20;45.30;;;;;;6203193;28;20051;-47
2022/11/18 07:11:30;;;;;;;;;;;20.70;45.70;;;;;;6205604;28;20842;-50
2022/11/18 07:14:31;;;;;;;0.63;0.45;;;20.70;45.80;;;;;;6188543;28;20039;-48
2022/11/18 07:17:33;;;;;;;;;;;20.60;45.70;;;;;;6200475;28;20032;-47
2022/11/18 07:20:34;;;;;;;0.50;0.40;;;20.60;45.90;;;;;;6184651;28;24910;-47
2022/11/18 07:23:36;;;;;;;;;;;20.50;45.70;;;;;;6205862;28;20067;-48
2022/11/18 07:26:38;;;;;;;0.82;0.40;;;20.80;46.00;;;;;;6189962;28;19928;-47
2022/11/18 07:29:39;;;;;;;;;;;20.60;46.50;;;;;;6178436;28;20163;-48
2022/11/18 07:32:41;;;;;;;0.55;0.30;;;20.60;46.00;;;;;;6148221;28;19958;-44
2022/11/18 07:35:42;;;;;;;;;;;20.10;45.70;;;;;;6147382;28;20044;-45
2022/11/18 07:38:45;;;;;;;0.50;0.30;;;20.30;46.00;;;;;;6123813;28;19928;-44
2022/11/18 07:41:47;;;;;;;0.93;0.45;;;20.50;46.00;;;;;;6174292;28;20126;-48
2022/11/18 07:44:48;;;;;;;0.82;0.47;;;20.50;46.10;;;;;;6152862;28;20049;-46
2022/11/18 07:47:50;;;;;;;;;;;20.20;45.80;;;;;;6148343;28;20052;-46
2022/11/18 07:50:52;;;;;;;0.63;0.40;;;20.70;46.30;;;;;;6143816;28;20495;-45
2022/11/18 07:53:54;;;;;;;0.38;0.30;;;20.60;46.20;;;;;;6152360;28;20044;-46
2022/11/18 07:56:56;;;;;;;0.50;0.30;;;20.70;46.10;;;;;;6141032;28;22582;-45
2022/11/18 07:59:57;;;;;;;;;;;20.90;46.10;;;;;;6106897;28;20048;-47
2022/11/18 08:02:59;;;;;;;0.75;0.40;;;20.80;46.30;;;;;;6088524;28;19928;-46
2022/11/18 08:06:01;;;;;;;0.43;0.30;;;20.60;45.90;;;;;;6068277;28;20056;-44
2022/11/18 08:09:04;;;;;;;0.77;0.47;;;20.60;46.00;;;;;;6034652;28;21176;-46
2022/11/18 08:12:06;;;;;;;0.50;0.40;;;20.70;46.00;;;;;;6089043;28;20103;-51
2022/11/18 08:15:08;;;;;;;0.77;0.40;;;20.10;45.60;;;;;;6087625;28;20044;-51
2022/11/18 08:18:10;;;;;;;0.43;0.28;;;20.70;46.00;;;;;;6102211;28;20163;-49
2022/11/18 08:21:16;;;;;;;0.38;0.20;;;20.70;45.90;;;;;;6090083;28;20183;-50
2022/11/18 08:24:18;;;;;;;0.55;0.32;;;20.70;46.00;;;;;;6071745;28;20053;-47
2022/11/18 08:27:20;;;;;;;0.60;0.30;;;20.30;45.70;;;;;;6088825;28;20041;-53
2022/11/18 08:30:21;;;;;;;0.80;0.40;;;20.50;45.70;;;;;;6100446;28;20045;-50
2022/11/18 08:33:23;;;;;;;;;;;20.50;45.80;;;;;;6041638;28;20083;-49
2022/11/18 08:36:26;;;;;;;1.23;0.57;;;20.80;45.80;;;;;;6064000;28;19932;-49
2022/11/18 08:39:29;;;;;;;2.05;0.90;;;20.70;45.90;;;;;;6085614;28;20110;-50
2022/11/18 08:42:31;;;;;;;3.10;1.52;;;20.60;45.80;;;;;;6082332;28;20049;-50
2022/11/18 08:45:36;;;;;;;4.07;1.90;;;21.00;46.00;;;;;;6092820;28;20041;-49
2022/11/18 08:48:38;;;;;;;3.97;2.30;;;20.70;46.20;;;;;;6046339;28;20700;-47
2022/11/18 08:51:40;;;;;;;5.80;2.95;;;20.70;45.80;;;;;;6050394;28;20045;-49
2022/11/18 08:54:42;;;;;;;5.28;2.95;;;20.90;46.10;;;;;;6075839;28;20050;-48
2022/11/18 08:57:44;;;;;;;7.80;3.80;;;20.70;45.80;;;;;;6040932;28;21863;-49
2022/11/18 09:00:45;;;;;;;;;;;20.80;46.00;;;;;;6052181;28;20040;-49
2022/11/18 09:03:47;;;;;;;8.35;4.85;;;21.00;46.20;;;;;;6051068;28;36290;-50
2022/11/18 09:06:49;;;;;;;8.60;4.05;;;20.70;46.40;;;;;;5998737;28;20133;-49
2022/11/18 09:09:51;;;;;;;;;;;20.90;46.10;;;;;;6020603;28;20120;-47
2022/11/18 09:12:53;;;;;;;4.78;2.80;;;20.40;45.80;;;;;;6076866;28;19965;-49
2022/11/18 09:15:57;;;;;;;5.45;2.50;;;20.80;46.00;;;;;;6047815;28;20118;-49
2022/11/18 09:18:59;;;;;;;5.25;2.88;;;20.70;46.00;;;;;;6076642;28;21170;-46
2022/11/18 09:22:19;;;;;;;4.40;2.70;;;20.80;46.00;;;;;;6037996;28;20052;-49
2022/11/18 09:25:21;;;;;;;3.88;2.20;;;21.10;46.20;;;;;;6092448;28;20044;-52
2022/11/18 09:28:23;;;;;;;3.05;2.03;;;20.80;46.00;;;;;;6033761;23;20052;-51
2022/11/18 09:31:24;;;;;;;;;;;20.90;46.10;;;;;;6034363;28;20067;-53
2022/11/18 09:34:27;;;;;;;2.80;1.20;;;20.90;46.20;;;;;;5987360;28;19932;-48
2022/11/18 09:37:29;;;;;;;2.78;1.40;;;20.80;46.00;;;;;;5979356;28;20039;-49
2022/11/18 09:40:31;;;;;;;4.70;2.20;;;20.90;46.00;;;;;;5995428;28;20195;-49
2022/11/18 09:43:44;;;;;;;4.95;2.30;;;21.10;46.10;;;;;;6018625;28;20177;-47
2022/11/18 09:46:59;;;;;;;5.07;2.45;;;20.90;45.80;;;;;;5962979;28;20045;-47
2022/11/18 09:50:04;;;;;;;3.97;2.20;;;21.10;45.80;;;;;;6011425;28;20045;-51
2022/11/18 09:53:26;;;;;;;4.05;1.85;;;20.50;45.40;;;;;;5623487;28;21118;-46
2022/11/18 09:56:29;;;;;;;3.50;1.80;;;21.10;45.70;;;;;;6035409;28;20201;-48
2022/11/18 09:59:31;;;;;;;2.63;1.42;;;21.20;45.60;;;;;;6005620;28;20044;-53
2022/11/18 10:02:46;;;;;;;3.15;1.50;;;20.80;45.30;;;;;;6043952;28;20056;-50
2022/11/18 10:05:54;;;;;;;4.25;1.52;;;20.90;45.30;;;;;;5928700;28;20041;-51
2022/11/18 10:09:05;;;;;;;2.40;1.27;;;21.10;45.40;;;;;;5998769;28;20044;-50
2022/11/18 10:12:22;;;;;;;1.80;1.17;;;20.60;45.00;;;;;;6034791;28;20063;-46
2022/11/18 10:15:31;;;;;;;1.42;0.70;;;21.10;45.20;;;;;;6058368;28;20048;-45
2022/11/18 10:18:39;;;;;;;2.08;0.98;;;20.80;45.00;;;;;;6011563;28;20160;-45
2022/11/18 10:22:14;;;;;;;1.33;0.60;;;21.10;45.10;;;;;;5967152;28;20084;-46
2022/11/18 10:25:52;;;;;;;1.10;0.52;;;20.80;58.20;;;;;;4905358;28;20044;-49
2022/11/18 10:29:20;;;;;;;1.40;0.70;;;21.20;45.30;;;;;;4011201;28;22785;-51
2022/11/18 10:32:24;;;;;;;0.90;0.50;;;20.60;44.90;;;;;;5912029;28;22083;-50
2022/11/18 10:35:29;;;;;;;0.95;0.57;;;21.00;45.00;;;;;;5989519;28;20124;-49
2022/11/18 10:38:30;;;;;;;1.95;0.60;;;21.20;45.10;;;;;;5992702;28;20130;-50
2022/11/18 10:41:37;;;;;;;;;;;21.20;45.00;;;;;;5995923;28;20088;-46
2022/11/18 10:44:40;;;;;;;0.60;0.38;;;21.10;45.00;;;;;;6018382;28;19928;-49
2022/11/18 10:48:16;;;;;;;1.02;0.52;;;21.20;45.00;;;;;;5167978;28;21781;-50
2022/11/18 10:51:53;;;;;;;0.47;0.32;;;20.60;44.60;;;;;;5418894;28;21960;-48
2022/11/18 10:55:42;;;;;;;0.95;0.30;;;20.70;44.50;;;;;;4861195;28;22606;-50
2022/11/18 10:59:58;;;;;;;1.02;0.70;;;21.00;45.30;;;;;;3522955;28;23149;-50
2022/11/18 11:03:00;;;;;;;0.95;0.50;;;20.80;44.20;;;;;;5811452;28;20053;-50
2022/11/18 11:06:27;;;;;;;0.50;0.30;;;21.30;44.50;;;;;;6044454;28;20037;-49
2022/11/18 11:09:40;;;;;;;0.65;0.40;;;21.00;44.70;;;;;;4695498;28;20041;-50
2022/11/18 11:12:46;;;;;;;;;;;21.20;44.20;;;;;;4335939;28;21656;-52
2022/11/18 11:15:52;;;;;;;0.55;0.30;;;20.90;44.00;;;;;;4815596;28;20993;-51
2022/11/18 11:18:58;;;;;;;0.32;0.30;;;21.00;44.20;;;;;;5737729;28;20045;-52
2022/11/18 11:22:00;;;;;;;0.60;0.47;;;21.30;44.20;;;;;;6087166;28;20048;-53
2022/11/18 11:25:05;;;;;;;0.60;0.40;;;21.30;43.90;;;;;;4519995;28;20044;-51
2022/11/18 11:28:18;;;;;;;1.15;0.40;;;21.30;43.80;;;;;;4679690;28;21322;-49
2022/11/18 11:31:29;;;;;;;1.17;0.40;;;21.00;43.60;;;;;;5528833;28;21673;-50
2022/11/18 11:34:41;;;;;;;0.50;0.40;;;21.40;43.70;;;;;;6073679;28;20874;-53
2022/11/18 11:37:52;;;;;;;0.95;0.30;;;21.20;43.60;;;;;;6046429;28;20045;-53
2022/11/18 11:41:03;;;;;;;0.93;0.50;;;21.30;43.50;;;;;;6076024;28;20447;-49
2022/11/18 11:44:22;;;;;;;0.50;0.25;;;20.90;43.30;;;;;;6104199;28;20963;-52
2022/11/18 11:50:53;;;;;;;0.40;0.30;;;21.20;43.50;;;;;;6089895;28;20066;-51
2022/11/18 11:54:30;;;;;;;0.65;0.30;;;21.20;43.40;;;;;;6103431;28;20178;-52
2022/11/18 11:57:44;;;;;;;0.35;0.15;;;20.90;43.20;;;;;;6061434;28;21063;-52
2022/11/18 12:00:53;;;;;;;0.30;0.20;;;21.40;43.40;;;;;;6085378;28;20095;-50
2022/11/18 12:04:05;;;;;;;0.40;0.28;;;21.40;43.40;;;;;;6116160;28;20073;-51
2022/11/18 12:07:15;;;;;;;0.28;0.10;;;21.20;43.20;;;;;;6063729;28;20118;-53
2022/11/18 12:10:29;;;;;;;0.47;0.30;;;21.10;43.10;;;;;;6077508;28;20080;-54
2022/11/18 12:13:39;;;;;;;0.20;0.20;;;21.20;43.00;;;;;;6027014;28;20037;-53
2022/11/18 12:16:49;;;;;;;0.45;0.20;;;21.40;43.10;;;;;;6062123;28;20163;-53
2022/11/18 12:25:40;;;;;;;0.60;0.30;;;21.30;43.00;;;;;;3408495;28;21288;-50
2022/11/18 12:29:25;;;;;;;0.40;0.20;;;21.30;43.10;;;;;;3536893;28;23643;-54
2022/11/18 12:32:33;;;;;;;0.52;0.20;;;21.20;43.00;;;;;;6065755;28;20137;-52
2022/11/18 12:40:51;;;;;;;0.47;0.20;;;21.30;43.00;;;;;;3387315;28;23534;-54
2022/11/18 12:44:06;;;;;;;0.30;0.30;;;21.20;43.00;;;;;;4131316;28;21248;-51
2022/11/18 12:47:09;;;;;;;0.65;0.20;;;21.10;43.00;;;;;;6069156;28;20988;-52
2022/11/18 12:50:13;;;;;;;0.43;0.22;;;21.30;43.10;;;;;;6086859;28;20179;-52
2022/11/18 12:53:32;;;;;;;0.52;0.28;;;21.20;43.00;;;;;;6078821;28;20097;-53
2022/11/18 12:56:36;;;;;;;0.20;0.20;;;21.30;43.10;;;;;;6057209;28;20042;-47
2022/11/18 12:59:38;;;;;;;0.30;0.10;;;21.00;42.90;;;;;;6058696;28;20090;-51
2022/11/18 13:02:51;;;;;;;0.47;0.28;;;21.60;43.20;;;;;;6009580;28;20127;-50
2022/11/18 13:06:01;;;;;;;0.30;0.30;;;21.60;43.10;;;;;;6020429;28;21204;-47
2022/11/18 13:09:06;;;;;;;0.70;0.40;;;21.30;42.80;;;;;;6040561;28;20045;-46
2022/11/18 13:12:17;;;;;;;0.47;0.30;;;21.20;42.70;;;;;;6020052;28;20053;-46
2022/11/18 13:18:48;;;;;;;0.68;0.20;;;21.30;42.40;;;;;;6032665;28;20041;-50
2022/11/18 13:25:24;;;;;;;0.50;0.20;;;21.10;41.90;;;;;;6048483;28;20045;-51
2022/11/18 13:28:35;;;;;;;0.30;0.28;;;21.50;41.90;;;;;;6028711;28;21133;-49
2022/11/18 13:31:45;;;;;;;0.30;0.30;;;21.50;41.80;;;;;;6031795;28;21827;-48
2022/11/18 13:34:56;;;;;;;0.32;0.10;;;21.50;41.70;;;;;;5715077;28;22581;-49
2022/11/18 13:37:59;;;;;;;0.45;0.20;;;21.60;41.50;;;;;;6050015;28;20049;-50
2022/11/18 13:41:05;;;;;;;0.20;0.20;;;21.40;41.40;;;;;;6064606;28;20056;-49
2022/11/18 13:44:14;;;;;;;0.85;0.20;;;21.60;41.50;;;;;;6029383;28;20404;-52
2022/11/18 13:47:25;;;;;;;0.20;0.10;;;21.10;41.00;;;;;;6013528;28;21191;-51
2022/11/18 13:50:34;;;;;;;0.75;0.63;;;21.60;41.30;;;;;;5887729;28;21360;-48
2022/11/18 13:53:38;;;;;;;0.20;0.10;;;21.40;41.30;;;;;;5834672;28;20049;-48
2022/11/18 13:56:39;;;;;;;0.20;0.17;;;21.20;41.20;;;;;;4672145;28;20045;-49
2022/11/18 13:59:41;;;;;;;;;;;21.20;41.20;;;;;;6027098;28;20962;-49
2022/11/18 14:02:45;;;;;;;;;;;21.40;41.50;;;;;;6033316;28;20059;-46
2022/11/18 14:05:53;;;;;;;0.40;0.20;;;21.60;41.70;;;;;;6021564;28;20042;-46
2022/11/18 14:09:16;;;;;;;0.13;0.10;;;21.50;41.70;;;;;;5994898;28;20041;-50
2022/11/18 14:12:24;;;;;;;0.50;0.30;;;21.00;41.40;;;;;;4518283;28;20708;-50
2022/11/18 14:15:35;;;;;;;0.20;0.10;;;20.70;41.70;;;;;;4370017;28;20197;-51
2022/11/18 14:18:46;;;;;;;0.30;0.20;;;21.10;41.60;;;;;;6009867;28;20063;-50
2022/11/18 14:21:48;;;;;;;0.10;0.10;;;21.50;41.90;;;;;;6015758;28;20049;-49
2022/11/18 14:24:55;;;;;;;0.10;0.10;;;21.60;42.10;;;;;;6014174;28;20037;-52
2022/11/18 14:28:09;;;;;;;0.22;0.10;;;21.40;42.20;;;;;;6034531;28;20137;-51
2022/11/18 14:31:23;;;;;;;0.57;0.20;;;21.50;42.40;;;;;;6000001;28;20036;-47
2022/11/18 14:34:26;;;;;;;0.40;0.20;;;21.30;42.50;;;;;;5999630;28;20042;-48
2022/11/18 14:37:29;;;;;;;0.50;0.30;;;21.60;42.90;;;;;;6023636;28;20119;-51
2022/11/18 14:40:31;;;;;;;0.35;0.22;;;21.70;43.20;;;;;;6015039;28;20049;-49
2022/11/18 14:43:33;;;;;;;0.35;0.25;;;21.70;43.30;;;;;;6021013;28;20045;-48
2022/11/18 14:46:37;;;;;;;0.40;0.20;;;21.70;43.60;;;;;;6000177;28;20044;-49
2022/11/18 14:49:39;;;;;;;0.20;0.10;;;21.30;43.50;;;;;;5976555;28;20783;-51
2022/11/18 14:52:41;;;;;;;0.35;0.20;;;21.50;43.90;;;;;;5987582;28;20044;-51
2022/11/18 14:55:44;;;;;;;0.20;0.20;;;21.60;44.60;;;;;;5952908;28;20601;-50
2022/11/18 14:58:46;;;;;;;0.60;0.30;;;21.20;44.00;;;;;;5978175;28;20041;-48
2022/11/18 15:01:47;;;;;;;0.43;0.20;;;21.40;44.20;;;;;;5958538;28;20668;-48
2022/11/18 15:04:51;;;;;;;0.38;0.20;;;21.60;44.50;;;;;;5943937;28;20128;-48
2022/11/18 15:07:55;;;;;;;0.30;0.20;;;21.70;44.80;;;;;;5985892;28;20049;-50
2022/11/18 15:10:57;;;;;;;0.28;0.20;;;21.50;44.60;;;;;;5961836;28;21471;-51
2022/11/18 15:13:59;;;;;;;0.20;0.10;;;21.90;44.90;;;;;;6019258;28;21906;-47
2022/11/18 15:17:04;;;;;;;0.68;0.20;;;21.60;44.90;;;;;;5989513;28;20064;-51
2022/11/18 15:20:09;;;;;;;0.82;0.30;;;21.30;44.80;;;;;;5336744;28;21588;-46
2022/11/18 15:23:20;;;;;;;0.40;0.20;;;21.50;45.00;;;;;;5385348;28;21717;-51
2022/11/18 15:26:37;;;;;;;0.43;0.22;;;21.60;45.30;;;;;;5764090;28;20183;-47
2022/11/18 15:29:39;;;;;;;0.10;0.10;;;21.60;45.70;;;;;;6001748;28;20046;-48
2022/11/18 15:32:42;;;;;;;0.22;0.10;;;21.70;45.10;;;;;;5789298;28;20055;-46
2022/11/18 15:35:43;;;;;;;0.30;0.20;;;21.50;45.00;;;;;;6077263;28;21011;-47
2022/11/18 15:38:46;;;;;;;0.32;0.30;;;21.40;45.10;;;;;;6041915;28;20777;-50
2022/11/18 15:41:48;;;;;;;0.20;0.10;;;21.50;45.10;;;;;;6054170;28;20080;-48
2022/11/18 15:44:51;;;;;;;0.32;0.20;;;21.60;45.20;;;;;;5004425;28;20105;-49
2022/11/18 15:47:54;;;;;;;;;;;21.50;45.10;;;;;;5927605;28;20049;-47
2022/11/18 15:50:56;;;;;;;0.38;0.25;;;21.10;45.20;;;;;;5910358;28;20122;-53
2022/11/18 15:53:58;;;;;;;;;;;21.60;45.30;;;;;;6059730;28;20052;-50
2022/11/18 15:57:00;;;;;;;0.40;0.30;;;21.70;45.40;;;;;;6040814;28;19936;-52
2022/11/18 16:00:04;;;;;;;;;;;21.70;45.40;;;;;;6060755;28;20041;-49
2022/11/18 16:03:13;;;;;;;0.40;0.30;;;21.70;45.50;;;;;;6077066;28;19929;-50
2022/11/18 16:06:14;;;;;;;;;;;22.00;45.60;;;;;;6063050;28;20170;-53
2022/11/18 16:09:17;;;;;;;0.30;0.10;;;21.40;45.30;;;;;;6070474;28;19929;-52
2022/11/18 16:15:42;;;;;;;0.32;0.20;;;21.40;45.20;;;;;;6100445;28;20094;-51
2022/11/18 16:18:44;;;;;;;0.20;0.13;;;21.10;45.00;;;;;;6100690;28;20049;-53
2022/11/18 16:21:46;;;;;;;;;;;21.30;45.00;;;;;;6106483;28;20182;-50
2022/11/18 16:24:48;;;;;;;0.10;0.10;;;21.60;45.20;;;;;;6107743;28;20421;-50
2022/11/18 16:27:50;;;;;;;0.60;0.20;;;21.50;45.10;;;;;;6106703;28;21826;-50
2022/11/18 16:34:29;;;;;;;0.30;0.30;;;21.80;45.40;;;;;;3447365;28;22155;-52
2022/11/18 16:37:41;;;;;;;0.17;0.10;;;21.50;45.10;;;;;;5578330;28;21716;-49
2022/11/18 16:40:43;;;;;;;;;;;21.60;45.10;;;;;;6113818;28;20073;-47
2022/11/18 16:43:48;;;;;;;0.55;0.20;;;21.70;45.30;;;;;;6136997;28;21642;-51
2022/11/18 16:46:51;;;;;;;0.28;0.20;;;21.60;45.10;;;;;;6122348;28;20037;-48
2022/11/18 16:49:53;;;;;;;0.40;0.20;;;21.50;45.10;;;;;;6140857;28;20041;-47
2022/11/18 16:52:54;;;;;;;;;;;21.70;45.10;;;;;;6141416;28;20049;-51
2022/11/18 16:56:02;;;;;;;0.57;0.10;;;21.50;45.10;;;;;;6147827;28;19929;-46
2022/11/18 16:59:06;;;;;;;0.45;0.30;;;21.30;45.50;;;;;;6120783;28;20102;-50